sensor_id;sensor_type;location;lat;lon;timestamp;temperature;humidity
17726;DHT22;8983;53.156;17.960;2022-11-25T00:01:07;2.00;99.90
17726;DHT22;8983;53.156;17.960;2022-11-25T00:03:35;2.00;99.90
17726;DHT22;8983;53.156;17.960;2022-11-25T00:06:11;2.00;99.90
17726;DHT22;8983;53.156;17.960;2022-11-25T00:08:40;2.00;99.90
17726;DHT22;8983;53.156;17.960;2022-11-25T00:11:10;2.00;99.90
17726;DHT22;8983;53.156;17.960;2022-11-25T00:13:39;2.00;99.90
17726;DHT22;8983;53.156;17.960;2022-11-25T00:16:10;2.00;99.90
17726;DHT22;8983;53.156;17.960;2022-11-25T00:18:38;1.90;99.90
17726;DHT22;8983;53.156;17.960;2022-11-25T00:21:08;1.90;99.90
17726;DHT22;8983;53.156;17.960;2022-11-25T00:23:36;1.90;99.90
17726;DHT22;8983;53.156;17.960;2022-11-25T00:26:06;1.90;99.90
17726;DHT22;8983;53.156;17.960;2022-11-25T00:28:35;1.80;99.90
17726;DHT22;8983;53.156;17.960;2022-11-25T00:31:05;1.80;99.90
17726;DHT22;8983;53.156;17.960;2022-11-25T00:33:34;1.80;99.90
17726;DHT22;8983;53.156;17.960;2022-11-25T00:36:03;1.80;99.90
17726;DHT22;8983;53.156;17.960;2022-11-25T00:38:31;1.80;99.90
17726;DHT22;8983;53.156;17.960;2022-11-25T00:40:59;1.90;99.90
17726;DHT22;8983;53.156;17.960;2022-11-25T00:43:44;1.90;99.90
17726;DHT22;8983;53.156;17.960;2022-11-25T00:46:30;1.90;99.90
17726;DHT22;8983;53.156;17.960;2022-11-25T00:48:59;1.90;99.90
17726;DHT22;8983;53.156;17.960;2022-11-25T00:51:27;1.90;99.90
17726;DHT22;8983;53.156;17.960;2022-11-25T00:53:55;2.00;99.90
17726;DHT22;8983;53.156;17.960;2022-11-25T00:56:25;1.90;99.90
17726;DHT22;8983;53.156;17.960;2022-11-25T00:58:53;1.90;99.90
17726;DHT22;8983;53.156;17.960;2022-11-25T01:01:21;1.90;99.90
17726;DHT22;8983;53.156;17.960;2022-11-25T01:03:49;1.90;99.90
17726;DHT22;8983;53.156;17.960;2022-11-25T01:06:19;1.90;99.90
17726;DHT22;8983;53.156;17.960;2022-11-25T01:08:47;1.90;99.90
17726;DHT22;8983;53.156;17.960;2022-11-25T01:11:19;1.90;99.90
17726;DHT22;8983;53.156;17.960;2022-11-25T01:13:47;1.80;99.90
17726;DHT22;8983;53.156;17.960;2022-11-25T01:16:16;1.80;99.90
17726;DHT22;8983;53.156;17.960;2022-11-25T01:18:45;1.80;99.90
17726;DHT22;8983;53.156;17.960;2022-11-25T01:21:15;1.80;99.90
17726;DHT22;8983;53.156;17.960;2022-11-25T01:23:45;1.80;99.90
17726;DHT22;8983;53.156;17.960;2022-11-25T01:26:15;1.80;99.90
17726;DHT22;8983;53.156;17.960;2022-11-25T01:28:43;1.80;99.90
17726;DHT22;8983;53.156;17.960;2022-11-25T01:31:14;1.80;99.90
17726;DHT22;8983;53.156;17.960;2022-11-25T01:33:43;1.90;99.90
17726;DHT22;8983;53.156;17.960;2022-11-25T01:36:13;1.90;99.90
17726;DHT22;8983;53.156;17.960;2022-11-25T01:38:43;1.90;99.90
17726;DHT22;8983;53.156;17.960;2022-11-25T01:41:13;1.90;99.90
17726;DHT22;8983;53.156;17.960;2022-11-25T01:43:41;2.00;99.90
17726;DHT22;8983;53.156;17.960;2022-11-25T01:46:19;2.00;99.90
17726;DHT22;8983;53.156;17.960;2022-11-25T01:48:50;2.00;99.90
17726;DHT22;8983;53.156;17.960;2022-11-25T01:51:25;2.00;99.90
17726;DHT22;8983;53.156;17.960;2022-11-25T01:53:57;2.00;99.90
17726;DHT22;8983;53.156;17.960;2022-11-25T01:56:27;2.00;99.90
17726;DHT22;8983;53.156;17.960;2022-11-25T01:58:55;2.00;99.90
17726;DHT22;8983;53.156;17.960;2022-11-25T02:01:23;2.00;99.90
17726;DHT22;8983;53.156;17.960;2022-11-25T02:03:53;2.00;99.90
17726;DHT22;8983;53.156;17.960;2022-11-25T02:06:24;2.00;99.90
17726;DHT22;8983;53.156;17.960;2022-11-25T02:08:58;2.00;99.90
17726;DHT22;8983;53.156;17.960;2022-11-25T02:11:28;2.00;99.90
17726;DHT22;8983;53.156;17.960;2022-11-25T02:13:58;2.00;99.90
17726;DHT22;8983;53.156;17.960;2022-11-25T02:16:26;2.00;99.90
17726;DHT22;8983;53.156;17.960;2022-11-25T02:18:54;2.00;99.90
17726;DHT22;8983;53.156;17.960;2022-11-25T02:21:28;2.00;99.90
17726;DHT22;8983;53.156;17.960;2022-11-25T02:24:05;2.00;99.90
17726;DHT22;8983;53.156;17.960;2022-11-25T02:26:37;2.00;99.90
17726;DHT22;8983;53.156;17.960;2022-11-25T02:29:05;2.00;99.90
17726;DHT22;8983;53.156;17.960;2022-11-25T02:31:33;2.00;99.90
17726;DHT22;8983;53.156;17.960;2022-11-25T02:34:01;2.00;99.90
17726;DHT22;8983;53.156;17.960;2022-11-25T02:36:28;2.00;99.90
17726;DHT22;8983;53.156;17.960;2022-11-25T02:38:58;2.00;99.90
17726;DHT22;8983;53.156;17.960;2022-11-25T02:41:30;2.00;99.90
17726;DHT22;8983;53.156;17.960;2022-11-25T02:44:00;2.00;99.90
17726;DHT22;8983;53.156;17.960;2022-11-25T02:46:29;2.00;99.90
17726;DHT22;8983;53.156;17.960;2022-11-25T02:48:58;2.00;99.90
17726;DHT22;8983;53.156;17.960;2022-11-25T02:51:36;2.00;99.90
17726;DHT22;8983;53.156;17.960;2022-11-25T02:54:05;2.00;99.90
17726;DHT22;8983;53.156;17.960;2022-11-25T02:56:34;2.00;99.90
17726;DHT22;8983;53.156;17.960;2022-11-25T02:59:04;2.00;99.90
17726;DHT22;8983;53.156;17.960;2022-11-25T03:01:32;2.00;99.90
17726;DHT22;8983;53.156;17.960;2022-11-25T03:04:01;2.00;99.90
17726;DHT22;8983;53.156;17.960;2022-11-25T03:06:29;2.00;99.90
17726;DHT22;8983;53.156;17.960;2022-11-25T03:08:58;2.00;99.90
17726;DHT22;8983;53.156;17.960;2022-11-25T03:11:26;2.00;99.90
17726;DHT22;8983;53.156;17.960;2022-11-25T03:14:09;2.00;99.90
17726;DHT22;8983;53.156;17.960;2022-11-25T03:16:37;2.00;99.90
17726;DHT22;8983;53.156;17.960;2022-11-25T03:19:05;1.90;99.90
17726;DHT22;8983;53.156;17.960;2022-11-25T03:21:34;1.90;99.90
17726;DHT22;8983;53.156;17.960;2022-11-25T03:24:02;2.00;99.90
17726;DHT22;8983;53.156;17.960;2022-11-25T03:26:30;2.00;99.90
17726;DHT22;8983;53.156;17.960;2022-11-25T03:28:58;2.00;99.90
17726;DHT22;8983;53.156;17.960;2022-11-25T03:31:27;2.00;99.90
17726;DHT22;8983;53.156;17.960;2022-11-25T03:33:55;2.00;99.90
17726;DHT22;8983;53.156;17.960;2022-11-25T03:36:23;2.00;99.90
17726;DHT22;8983;53.156;17.960;2022-11-25T03:38:51;2.00;99.90
17726;DHT22;8983;53.156;17.960;2022-11-25T03:41:19;2.00;99.90
17726;DHT22;8983;53.156;17.960;2022-11-25T03:43:47;2.00;99.90
17726;DHT22;8983;53.156;17.960;2022-11-25T03:46:15;2.00;99.90
17726;DHT22;8983;53.156;17.960;2022-11-25T03:48:44;2.00;99.90
17726;DHT22;8983;53.156;17.960;2022-11-25T03:51:12;2.10;99.90
17726;DHT22;8983;53.156;17.960;2022-11-25T03:53:40;2.10;99.90
17726;DHT22;8983;53.156;17.960;2022-11-25T03:56:08;2.10;99.90
17726;DHT22;8983;53.156;17.960;2022-11-25T03:58:36;2.10;99.90
17726;DHT22;8983;53.156;17.960;2022-11-25T04:01:04;2.10;99.90
17726;DHT22;8983;53.156;17.960;2022-11-25T04:03:32;2.10;99.90
17726;DHT22;8983;53.156;17.960;2022-11-25T04:06:01;2.10;99.90
17726;DHT22;8983;53.156;17.960;2022-11-25T04:08:29;2.00;99.90
17726;DHT22;8983;53.156;17.960;2022-11-25T04:10:57;2.10;99.90
17726;DHT22;8983;53.156;17.960;2022-11-25T04:13:25;2.10;99.90
17726;DHT22;8983;53.156;17.960;2022-11-25T04:15:52;2.10;99.90
17726;DHT22;8983;53.156;17.960;2022-11-25T04:18:20;2.10;99.90
17726;DHT22;8983;53.156;17.960;2022-11-25T04:20:48;2.10;99.90
17726;DHT22;8983;53.156;17.960;2022-11-25T04:23:17;2.10;99.90
17726;DHT22;8983;53.156;17.960;2022-11-25T04:25:48;2.10;99.90
17726;DHT22;8983;53.156;17.960;2022-11-25T04:28:16;2.10;99.90
17726;DHT22;8983;53.156;17.960;2022-11-25T04:30:44;2.10;99.90
17726;DHT22;8983;53.156;17.960;2022-11-25T04:33:12;2.10;99.90
17726;DHT22;8983;53.156;17.960;2022-11-25T04:35:40;2.10;99.90
17726;DHT22;8983;53.156;17.960;2022-11-25T04:38:08;2.10;99.90
17726;DHT22;8983;53.156;17.960;2022-11-25T04:40:37;2.00;99.90
17726;DHT22;8983;53.156;17.960;2022-11-25T04:43:05;2.10;99.90
17726;DHT22;8983;53.156;17.960;2022-11-25T04:45:36;2.10;99.90
17726;DHT22;8983;53.156;17.960;2022-11-25T04:48:24;2.10;99.90
17726;DHT22;8983;53.156;17.960;2022-11-25T04:50:52;2.10;99.90
17726;DHT22;8983;53.156;17.960;2022-11-25T04:53:20;2.10;99.90
17726;DHT22;8983;53.156;17.960;2022-11-25T04:55:49;2.10;99.90
17726;DHT22;8983;53.156;17.960;2022-11-25T04:58:17;2.10;99.90
17726;DHT22;8983;53.156;17.960;2022-11-25T05:01:05;2.10;99.90
17726;DHT22;8983;53.156;17.960;2022-11-25T05:03:32;2.10;99.90
17726;DHT22;8983;53.156;17.960;2022-11-25T05:06:04;2.20;99.90
17726;DHT22;8983;53.156;17.960;2022-11-25T05:08:33;2.20;99.90
17726;DHT22;8983;53.156;17.960;2022-11-25T05:11:02;2.20;99.90
17726;DHT22;8983;53.156;17.960;2022-11-25T05:13:30;2.10;99.90
17726;DHT22;8983;53.156;17.960;2022-11-25T05:15:58;2.20;99.90
17726;DHT22;8983;53.156;17.960;2022-11-25T05:18:26;2.10;99.90
17726;DHT22;8983;53.156;17.960;2022-11-25T05:20:54;2.10;99.90
17726;DHT22;8983;53.156;17.960;2022-11-25T05:23:22;2.10;99.90
17726;DHT22;8983;53.156;17.960;2022-11-25T05:25:50;2.20;99.90
17726;DHT22;8983;53.156;17.960;2022-11-25T05:28:19;2.20;99.90
17726;DHT22;8983;53.156;17.960;2022-11-25T05:30:47;2.20;99.90
17726;DHT22;8983;53.156;17.960;2022-11-25T05:33:15;2.10;99.90
17726;DHT22;8983;53.156;17.960;2022-11-25T05:35:43;2.20;99.90
17726;DHT22;8983;53.156;17.960;2022-11-25T05:38:11;2.10;99.90
17726;DHT22;8983;53.156;17.960;2022-11-25T05:40:39;2.10;99.90
17726;DHT22;8983;53.156;17.960;2022-11-25T05:43:07;2.10;99.90
17726;DHT22;8983;53.156;17.960;2022-11-25T05:45:38;2.20;99.90
17726;DHT22;8983;53.156;17.960;2022-11-25T05:48:06;2.10;99.90
17726;DHT22;8983;53.156;17.960;2022-11-25T05:50:35;2.10;99.90
17726;DHT22;8983;53.156;17.960;2022-11-25T05:53:03;2.10;99.90
17726;DHT22;8983;53.156;17.960;2022-11-25T05:55:31;2.10;99.90
17726;DHT22;8983;53.156;17.960;2022-11-25T05:57:59;2.10;99.90
17726;DHT22;8983;53.156;17.960;2022-11-25T06:00:28;2.10;99.90
17726;DHT22;8983;53.156;17.960;2022-11-25T06:02:57;2.10;99.90
17726;DHT22;8983;53.156;17.960;2022-11-25T06:05:26;2.10;99.90
17726;DHT22;8983;53.156;17.960;2022-11-25T06:07:54;2.10;99.90
17726;DHT22;8983;53.156;17.960;2022-11-25T06:10:22;2.10;99.90
17726;DHT22;8983;53.156;17.960;2022-11-25T06:12:50;2.10;99.90
17726;DHT22;8983;53.156;17.960;2022-11-25T06:15:19;2.10;99.90
17726;DHT22;8983;53.156;17.960;2022-11-25T06:17:47;2.10;99.90
17726;DHT22;8983;53.156;17.960;2022-11-25T06:20:16;2.10;99.90
17726;DHT22;8983;53.156;17.960;2022-11-25T06:22:44;2.10;99.90
17726;DHT22;8983;53.156;17.960;2022-11-25T06:25:12;2.10;99.90
17726;DHT22;8983;53.156;17.960;2022-11-25T06:27:40;2.00;99.90
17726;DHT22;8983;53.156;17.960;2022-11-25T06:30:28;2.10;99.90
17726;DHT22;8983;53.156;17.960;2022-11-25T06:32:56;2.10;99.90
17726;DHT22;8983;53.156;17.960;2022-11-25T06:35:25;2.10;99.90
17726;DHT22;8983;53.156;17.960;2022-11-25T06:37:53;2.00;99.90
17726;DHT22;8983;53.156;17.960;2022-11-25T06:40:21;2.00;99.90
17726;DHT22;8983;53.156;17.960;2022-11-25T06:42:49;2.10;99.90
17726;DHT22;8983;53.156;17.960;2022-11-25T06:45:17;2.00;99.90
17726;DHT22;8983;53.156;17.960;2022-11-25T06:47:45;2.10;99.90
17726;DHT22;8983;53.156;17.960;2022-11-25T06:50:13;2.10;99.90
17726;DHT22;8983;53.156;17.960;2022-11-25T06:52:42;2.00;99.90
17726;DHT22;8983;53.156;17.960;2022-11-25T06:55:10;2.00;99.90
17726;DHT22;8983;53.156;17.960;2022-11-25T06:57:38;2.00;99.90
17726;DHT22;8983;53.156;17.960;2022-11-25T07:00:07;2.00;99.90
17726;DHT22;8983;53.156;17.960;2022-11-25T07:02:35;2.00;99.90
17726;DHT22;8983;53.156;17.960;2022-11-25T07:05:09;2.00;99.90
17726;DHT22;8983;53.156;17.960;2022-11-25T07:07:37;2.00;99.90
17726;DHT22;8983;53.156;17.960;2022-11-25T07:10:08;2.00;99.90
17726;DHT22;8983;53.156;17.960;2022-11-25T07:12:36;2.00;99.90
17726;DHT22;8983;53.156;17.960;2022-11-25T07:15:05;2.00;99.90
17726;DHT22;8983;53.156;17.960;2022-11-25T07:17:33;1.90;99.90
17726;DHT22;8983;53.156;17.960;2022-11-25T07:20:01;2.00;99.90
17726;DHT22;8983;53.156;17.960;2022-11-25T07:22:29;2.00;99.90
17726;DHT22;8983;53.156;17.960;2022-11-25T07:24:56;2.00;99.90
17726;DHT22;8983;53.156;17.960;2022-11-25T07:27:26;2.00;99.90
17726;DHT22;8983;53.156;17.960;2022-11-25T07:29:54;2.00;99.90
17726;DHT22;8983;53.156;17.960;2022-11-25T07:32:41;2.00;99.90
17726;DHT22;8983;53.156;17.960;2022-11-25T07:35:09;2.00;99.90
17726;DHT22;8983;53.156;17.960;2022-11-25T07:37:37;2.00;99.90
17726;DHT22;8983;53.156;17.960;2022-11-25T07:40:06;2.10;99.90
17726;DHT22;8983;53.156;17.960;2022-11-25T07:42:36;2.10;99.90
17726;DHT22;8983;53.156;17.960;2022-11-25T07:45:05;2.00;99.90
17726;DHT22;8983;53.156;17.960;2022-11-25T07:47:33;2.10;99.90
17726;DHT22;8983;53.156;17.960;2022-11-25T07:50:01;2.10;99.90
17726;DHT22;8983;53.156;17.960;2022-11-25T07:52:29;2.10;99.90
17726;DHT22;8983;53.156;17.960;2022-11-25T07:54:57;2.10;99.90
17726;DHT22;8983;53.156;17.960;2022-11-25T07:57:25;2.10;99.90
17726;DHT22;8983;53.156;17.960;2022-11-25T07:59:54;2.10;99.90
17726;DHT22;8983;53.156;17.960;2022-11-25T08:02:22;2.20;99.90
17726;DHT22;8983;53.156;17.960;2022-11-25T08:04:50;2.20;99.90
17726;DHT22;8983;53.156;17.960;2022-11-25T08:07:18;2.20;99.90
17726;DHT22;8983;53.156;17.960;2022-11-25T08:09:46;2.20;99.90
17726;DHT22;8983;53.156;17.960;2022-11-25T08:12:14;2.20;99.90
17726;DHT22;8983;53.156;17.960;2022-11-25T08:14:42;2.20;99.90
17726;DHT22;8983;53.156;17.960;2022-11-25T08:17:11;2.20;99.90
17726;DHT22;8983;53.156;17.960;2022-11-25T08:19:39;2.20;99.90
17726;DHT22;8983;53.156;17.960;2022-11-25T08:22:07;2.20;99.90
17726;DHT22;8983;53.156;17.960;2022-11-25T08:24:35;2.20;99.90
17726;DHT22;8983;53.156;17.960;2022-11-25T08:27:03;2.30;99.90
17726;DHT22;8983;53.156;17.960;2022-11-25T08:29:31;2.30;99.90
17726;DHT22;8983;53.156;17.960;2022-11-25T08:31:59;2.30;99.90
17726;DHT22;8983;53.156;17.960;2022-11-25T08:34:28;2.30;99.90
17726;DHT22;8983;53.156;17.960;2022-11-25T08:36:56;2.30;99.90
17726;DHT22;8983;53.156;17.960;2022-11-25T08:39:24;2.30;99.90
17726;DHT22;8983;53.156;17.960;2022-11-25T08:42:12;2.30;99.90
17726;DHT22;8983;53.156;17.960;2022-11-25T08:44:40;2.30;99.90
17726;DHT22;8983;53.156;17.960;2022-11-25T08:47:08;2.40;99.90
17726;DHT22;8983;53.156;17.960;2022-11-25T08:49:37;2.40;99.90
17726;DHT22;8983;53.156;17.960;2022-11-25T08:52:08;2.40;99.90
17726;DHT22;8983;53.156;17.960;2022-11-25T08:54:36;2.40;99.90
17726;DHT22;8983;53.156;17.960;2022-11-25T08:57:04;2.40;99.90
17726;DHT22;8983;53.156;17.960;2022-11-25T08:59:32;2.40;99.90
17726;DHT22;8983;53.156;17.960;2022-11-25T09:02:00;2.40;99.90
17726;DHT22;8983;53.156;17.960;2022-11-25T09:04:28;2.40;99.90
17726;DHT22;8983;53.156;17.960;2022-11-25T09:06:58;2.40;99.90
17726;DHT22;8983;53.156;17.960;2022-11-25T09:09:26;2.40;99.90
17726;DHT22;8983;53.156;17.960;2022-11-25T09:11:54;2.40;99.90
17726;DHT22;8983;53.156;17.960;2022-11-25T09:14:22;2.40;99.90
17726;DHT22;8983;53.156;17.960;2022-11-25T09:16:50;2.40;99.90
17726;DHT22;8983;53.156;17.960;2022-11-25T09:19:18;2.40;99.90
17726;DHT22;8983;53.156;17.960;2022-11-25T09:21:46;2.50;99.90
17726;DHT22;8983;53.156;17.960;2022-11-25T09:24:15;2.50;99.90
17726;DHT22;8983;53.156;17.960;2022-11-25T09:26:43;2.50;99.90
17726;DHT22;8983;53.156;17.960;2022-11-25T09:29:12;2.50;99.90
17726;DHT22;8983;53.156;17.960;2022-11-25T09:31:40;2.50;99.90
17726;DHT22;8983;53.156;17.960;2022-11-25T09:34:08;2.40;99.90
17726;DHT22;8983;53.156;17.960;2022-11-25T09:36:36;2.40;99.90
17726;DHT22;8983;53.156;17.960;2022-11-25T09:39:04;2.40;99.90
17726;DHT22;8983;53.156;17.960;2022-11-25T09:41:46;2.40;99.90
17726;DHT22;8983;53.156;17.960;2022-11-25T09:44:43;2.50;99.90
17726;DHT22;8983;53.156;17.960;2022-11-25T09:47:53;2.50;99.90
17726;DHT22;8983;53.156;17.960;2022-11-25T09:50:33;2.50;99.90
17726;DHT22;8983;53.156;17.960;2022-11-25T09:53:10;2.50;99.90
17726;DHT22;8983;53.156;17.960;2022-11-25T09:55:43;2.50;99.90
17726;DHT22;8983;53.156;17.960;2022-11-25T09:58:23;2.50;99.90
17726;DHT22;8983;53.156;17.960;2022-11-25T10:00:55;2.60;99.90
17726;DHT22;8983;53.156;17.960;2022-11-25T10:03:31;2.60;99.90
17726;DHT22;8983;53.156;17.960;2022-11-25T10:06:04;2.60;99.90
17726;DHT22;8983;53.156;17.960;2022-11-25T10:08:37;2.60;99.90
17726;DHT22;8983;53.156;17.960;2022-11-25T10:11:14;2.60;99.90
17726;DHT22;8983;53.156;17.960;2022-11-25T10:13:48;2.60;99.90
17726;DHT22;8983;53.156;17.960;2022-11-25T10:16:29;2.60;99.90
17726;DHT22;8983;53.156;17.960;2022-11-25T10:19:02;2.70;99.90
17726;DHT22;8983;53.156;17.960;2022-11-25T10:21:32;2.70;99.90
17726;DHT22;8983;53.156;17.960;2022-11-25T10:24:02;2.70;99.90
17726;DHT22;8983;53.156;17.960;2022-11-25T10:26:35;2.80;99.90
17726;DHT22;8983;53.156;17.960;2022-11-25T10:29:24;2.80;99.90
17726;DHT22;8983;53.156;17.960;2022-11-25T10:31:58;2.80;99.90
17726;DHT22;8983;53.156;17.960;2022-11-25T10:34:33;2.80;99.90
17726;DHT22;8983;53.156;17.960;2022-11-25T10:37:09;2.80;99.90
17726;DHT22;8983;53.156;17.960;2022-11-25T10:39:39;2.80;99.90
17726;DHT22;8983;53.156;17.960;2022-11-25T10:42:14;2.80;99.90
17726;DHT22;8983;53.156;17.960;2022-11-25T10:44:44;2.80;99.90
17726;DHT22;8983;53.156;17.960;2022-11-25T10:47:25;2.70;99.90
17726;DHT22;8983;53.156;17.960;2022-11-25T10:50:09;2.70;99.90
17726;DHT22;8983;53.156;17.960;2022-11-25T10:52:41;2.70;99.90
17726;DHT22;8983;53.156;17.960;2022-11-25T10:55:12;2.70;99.90
17726;DHT22;8983;53.156;17.960;2022-11-25T10:57:41;2.70;99.90
17726;DHT22;8983;53.156;17.960;2022-11-25T11:00:30;2.60;99.90
17726;DHT22;8983;53.156;17.960;2022-11-25T11:03:10;2.60;99.90
17726;DHT22;8983;53.156;17.960;2022-11-25T11:05:44;2.60;99.90
17726;DHT22;8983;53.156;17.960;2022-11-25T11:08:18;2.60;99.90
17726;DHT22;8983;53.156;17.960;2022-11-25T11:10:53;2.60;99.90
17726;DHT22;8983;53.156;17.960;2022-11-25T11:13:34;2.60;99.90
17726;DHT22;8983;53.156;17.960;2022-11-25T11:16:13;2.60;99.90
17726;DHT22;8983;53.156;17.960;2022-11-25T11:18:47;2.60;99.90
17726;DHT22;8983;53.156;17.960;2022-11-25T11:21:22;2.60;99.90
17726;DHT22;8983;53.156;17.960;2022-11-25T11:23:52;2.60;99.90
17726;DHT22;8983;53.156;17.960;2022-11-25T11:26:24;2.60;99.90
17726;DHT22;8983;53.156;17.960;2022-11-25T11:29:03;2.50;99.90
17726;DHT22;8983;53.156;17.960;2022-11-25T11:31:44;2.50;99.90
17726;DHT22;8983;53.156;17.960;2022-11-25T11:34:37;2.60;99.90
17726;DHT22;8983;53.156;17.960;2022-11-25T11:37:19;2.60;99.90
17726;DHT22;8983;53.156;17.960;2022-11-25T11:40:02;2.60;99.90
17726;DHT22;8983;53.156;17.960;2022-11-25T11:42:38;2.70;99.90
17726;DHT22;8983;53.156;17.960;2022-11-25T11:45:26;2.70;99.90
17726;DHT22;8983;53.156;17.960;2022-11-25T11:48:10;2.70;99.90
17726;DHT22;8983;53.156;17.960;2022-11-25T11:50:40;2.70;99.90
17726;DHT22;8983;53.156;17.960;2022-11-25T11:53:16;2.70;99.90
17726;DHT22;8983;53.156;17.960;2022-11-25T11:55:51;2.70;99.90
17726;DHT22;8983;53.156;17.960;2022-11-25T11:58:50;2.70;99.90
17726;DHT22;8983;53.156;17.960;2022-11-25T12:01:33;2.60;99.90
17726;DHT22;8983;53.156;17.960;2022-11-25T12:04:14;2.70;99.90
17726;DHT22;8983;53.156;17.960;2022-11-25T12:06:57;2.70;99.90
17726;DHT22;8983;53.156;17.960;2022-11-25T12:09:28;2.70;99.90
17726;DHT22;8983;53.156;17.960;2022-11-25T12:12:03;2.70;99.90
17726;DHT22;8983;53.156;17.960;2022-11-25T12:14:38;2.70;99.90
17726;DHT22;8983;53.156;17.960;2022-11-25T12:17:12;2.70;99.90
17726;DHT22;8983;53.156;17.960;2022-11-25T12:19:48;2.70;99.90
17726;DHT22;8983;53.156;17.960;2022-11-25T12:22:21;2.70;99.90
17726;DHT22;8983;53.156;17.960;2022-11-25T12:25:00;2.70;99.90
17726;DHT22;8983;53.156;17.960;2022-11-25T12:27:32;2.70;99.90
17726;DHT22;8983;53.156;17.960;2022-11-25T12:30:04;2.60;99.90
17726;DHT22;8983;53.156;17.960;2022-11-25T12:32:50;2.60;99.90
17726;DHT22;8983;53.156;17.960;2022-11-25T12:35:32;2.60;99.90
17726;DHT22;8983;53.156;17.960;2022-11-25T12:38:13;2.60;99.90
17726;DHT22;8983;53.156;17.960;2022-11-25T12:40:44;2.70;99.90
17726;DHT22;8983;53.156;17.960;2022-11-25T12:43:22;2.70;99.90
17726;DHT22;8983;53.156;17.960;2022-11-25T12:45:59;2.70;99.90
17726;DHT22;8983;53.156;17.960;2022-11-25T12:48:30;2.70;99.90
17726;DHT22;8983;53.156;17.960;2022-11-25T12:51:04;2.60;99.90
17726;DHT22;8983;53.156;17.960;2022-11-25T12:53:39;2.70;99.90
17726;DHT22;8983;53.156;17.960;2022-11-25T12:56:15;2.70;99.90
17726;DHT22;8983;53.156;17.960;2022-11-25T12:58:55;2.70;99.90
17726;DHT22;8983;53.156;17.960;2022-11-25T13:01:46;2.70;99.90
17726;DHT22;8983;53.156;17.960;2022-11-25T13:04:34;2.70;99.90
17726;DHT22;8983;53.156;17.960;2022-11-25T13:07:28;2.70;99.90
17726;DHT22;8983;53.156;17.960;2022-11-25T13:10:44;2.70;99.90
17726;DHT22;8983;53.156;17.960;2022-11-25T13:13:24;2.70;99.90
17726;DHT22;8983;53.156;17.960;2022-11-25T13:15:57;2.70;99.90
17726;DHT22;8983;53.156;17.960;2022-11-25T13:18:30;2.70;99.90
17726;DHT22;8983;53.156;17.960;2022-11-25T13:21:06;2.70;99.90
17726;DHT22;8983;53.156;17.960;2022-11-25T13:23:49;2.70;99.90
17726;DHT22;8983;53.156;17.960;2022-11-25T13:26:49;2.60;99.90
17726;DHT22;8983;53.156;17.960;2022-11-25T13:32:31;2.60;99.90
17726;DHT22;8983;53.156;17.960;2022-11-25T13:38:05;2.60;99.90
17726;DHT22;8983;53.156;17.960;2022-11-25T13:40:37;2.50;99.90
17726;DHT22;8983;53.156;17.960;2022-11-25T13:43:19;2.50;99.90
17726;DHT22;8983;53.156;17.960;2022-11-25T13:45:48;2.50;99.90
17726;DHT22;8983;53.156;17.960;2022-11-25T13:48:18;2.60;99.90
17726;DHT22;8983;53.156;17.960;2022-11-25T13:50:48;2.50;99.90
17726;DHT22;8983;53.156;17.960;2022-11-25T13:53:37;2.50;99.90
17726;DHT22;8983;53.156;17.960;2022-11-25T13:56:14;2.60;99.90
17726;DHT22;8983;53.156;17.960;2022-11-25T14:01:51;2.60;99.90
17726;DHT22;8983;53.156;17.960;2022-11-25T14:04:31;2.50;99.90
17726;DHT22;8983;53.156;17.960;2022-11-25T14:07:18;2.60;99.90
17726;DHT22;8983;53.156;17.960;2022-11-25T14:10:01;2.60;99.90
17726;DHT22;8983;53.156;17.960;2022-11-25T14:13:01;2.50;99.90
17726;DHT22;8983;53.156;17.960;2022-11-25T14:15:42;2.50;99.90
17726;DHT22;8983;53.156;17.960;2022-11-25T14:21:43;2.50;99.90
17726;DHT22;8983;53.156;17.960;2022-11-25T14:24:28;2.50;99.90
17726;DHT22;8983;53.156;17.960;2022-11-25T14:26:58;2.40;99.90
17726;DHT22;8983;53.156;17.960;2022-11-25T14:29:35;2.40;99.90
17726;DHT22;8983;53.156;17.960;2022-11-25T14:32:08;2.40;99.90
17726;DHT22;8983;53.156;17.960;2022-11-25T14:34:40;2.40;99.90
17726;DHT22;8983;53.156;17.960;2022-11-25T14:37:12;2.40;99.90
17726;DHT22;8983;53.156;17.960;2022-11-25T14:39:45;2.30;99.90
17726;DHT22;8983;53.156;17.960;2022-11-25T14:42:19;2.40;99.90
17726;DHT22;8983;53.156;17.960;2022-11-25T14:44:51;2.30;99.90
17726;DHT22;8983;53.156;17.960;2022-11-25T14:47:22;2.30;99.90
17726;DHT22;8983;53.156;17.960;2022-11-25T14:49:51;2.30;99.90
17726;DHT22;8983;53.156;17.960;2022-11-25T14:52:40;2.30;99.90
17726;DHT22;8983;53.156;17.960;2022-11-25T14:55:10;2.30;99.90
17726;DHT22;8983;53.156;17.960;2022-11-25T14:57:42;2.30;99.90
17726;DHT22;8983;53.156;17.960;2022-11-25T15:00:14;2.30;99.90
17726;DHT22;8983;53.156;17.960;2022-11-25T15:02:52;2.30;99.90
17726;DHT22;8983;53.156;17.960;2022-11-25T15:05:22;2.20;99.90
17726;DHT22;8983;53.156;17.960;2022-11-25T15:07:58;2.30;99.90
17726;DHT22;8983;53.156;17.960;2022-11-25T15:10:38;2.20;99.90
17726;DHT22;8983;53.156;17.960;2022-11-25T15:13:23;2.20;99.90
17726;DHT22;8983;53.156;17.960;2022-11-25T15:15:57;2.10;99.90
17726;DHT22;8983;53.156;17.960;2022-11-25T15:18:27;2.10;99.90
17726;DHT22;8983;53.156;17.960;2022-11-25T15:20:57;2.10;99.90
17726;DHT22;8983;53.156;17.960;2022-11-25T15:23:28;2.10;99.90
17726;DHT22;8983;53.156;17.960;2022-11-25T15:26:01;2.10;99.90
17726;DHT22;8983;53.156;17.960;2022-11-25T15:28:34;2.10;99.90
17726;DHT22;8983;53.156;17.960;2022-11-25T15:31:07;2.10;99.90
17726;DHT22;8983;53.156;17.960;2022-11-25T15:33:36;2.00;99.90
17726;DHT22;8983;53.156;17.960;2022-11-25T15:36:04;2.00;99.90
17726;DHT22;8983;53.156;17.960;2022-11-25T15:38:36;2.00;99.90
17726;DHT22;8983;53.156;17.960;2022-11-25T15:41:05;2.00;99.90
17726;DHT22;8983;53.156;17.960;2022-11-25T15:43:39;2.00;99.90
17726;DHT22;8983;53.156;17.960;2022-11-25T15:46:13;2.00;99.90
17726;DHT22;8983;53.156;17.960;2022-11-25T15:48:43;1.90;99.90
17726;DHT22;8983;53.156;17.960;2022-11-25T15:51:34;1.90;99.90
17726;DHT22;8983;53.156;17.960;2022-11-25T15:54:05;1.90;99.90
17726;DHT22;8983;53.156;17.960;2022-11-25T15:56:37;1.90;99.90
17726;DHT22;8983;53.156;17.960;2022-11-25T16:02:33;1.80;99.90
17726;DHT22;8983;53.156;17.960;2022-11-25T16:05:15;1.80;99.90
17726;DHT22;8983;53.156;17.960;2022-11-25T16:10:50;1.70;99.90
17726;DHT22;8983;53.156;17.960;2022-11-25T16:13:33;1.70;99.90
17726;DHT22;8983;53.156;17.960;2022-11-25T16:16:11;1.60;99.90
17726;DHT22;8983;53.156;17.960;2022-11-25T16:18:51;1.60;99.90
17726;DHT22;8983;53.156;17.960;2022-11-25T16:21:22;1.60;99.90
17726;DHT22;8983;53.156;17.960;2022-11-25T16:23:52;1.60;99.90
17726;DHT22;8983;53.156;17.960;2022-11-25T16:26:24;1.60;99.90
17726;DHT22;8983;53.156;17.960;2022-11-25T16:28:55;1.50;99.90
17726;DHT22;8983;53.156;17.960;2022-11-25T16:31:24;1.50;99.90
17726;DHT22;8983;53.156;17.960;2022-11-25T16:34:13;1.50;99.90
17726;DHT22;8983;53.156;17.960;2022-11-25T16:36:41;1.50;99.90